Terminal Aerodrome Forecast
Issued by NWS Jackson, MS

Home | Current Version | Previous Version | Text Only | Print | Product List | Glossary On
Versions: 1 2 3 4 5 6 7 8 9 10 11 12 13
000
FTUS44 KMEG 041131
TAFTUP
TAF
KTUP 041131Z 0412/0512 09009KT 5SM -RA BR OVC005
     FM041800 02003KT 4SM BR VCSH OVC007
     FM050100 02005KT 3SM BR OVC005=

USA.gov is the U.S. government's official web portal to all federal, state and local government web resources and services.